Time;durP1;ratioP1;P1;durP2;ratioP2;P2;SDS_P1;SDS_P2;PMS_P1;PMS_P2;Temp;Humidity;BMP_temperature;BMP_pressure;BME280_temperature;BME280_humidity;BME280_pressure;Samples;Min_cycle;Max_cycle;Signal;HPM_P1;HPM_P2
2022/01/08 00:00:35;;;;;;;35.40;23.88;;;77.20;2227.20;;;;;;4996905;28;20018;-76
2022/01/08 00:03:01;;;;;;;39.47;25.77;;;77.20;2227.20;;;;;;4975639;28;20581;-76
2022/01/08 00:05:27;;;;;;;41.15;25.95;;;77.20;2227.20;;;;;;4978682;28;20452;-76
2022/01/08 00:07:54;;;;;;;44.80;27.63;;;77.30;2227.20;;;;;;4979014;28;20062;-75
2022/01/08 00:10:20;;;;;;;51.00;28.88;;;77.30;2227.20;;;;;;4980032;28;20081;-76
2022/01/08 00:12:45;;;;;;;50.03;30.35;;;77.30;2227.20;;;;;;4978240;28;20031;-75
2022/01/08 00:15:11;;;;;;;43.67;26.13;;;77.20;2227.20;;;;;;4992295;28;20033;-76
2022/01/08 00:17:37;;;;;;;53.10;28.73;;;77.20;2227.20;;;;;;4994241;28;20085;-76
2022/01/08 00:20:05;;;;;;;44.80;25.75;;;77.10;2227.20;;;;;;4991671;28;20072;-77
2022/01/08 00:22:30;;;;;;;38.20;24.48;;;77.10;2227.20;;;;;;4990945;28;20030;-76
2022/01/08 00:24:56;;;;;;;38.90;25.30;;;77.10;2227.20;;;;;;4981977;28;20027;-76
2022/01/08 00:27:23;;;;;;;44.42;28.33;;;77.10;2227.20;;;;;;5001687;28;20117;-76
2022/01/08 00:29:49;;;;;;;45.42;27.42;;;77.00;2227.20;;;;;;5005755;28;20030;-75
2022/01/08 00:32:15;;;;;;;43.75;28.25;;;77.50;2227.20;;;;;;4988742;28;20053;-76
2022/01/08 00:34:44;;;;;;;41.00;25.73;;;77.10;2227.20;;;;;;4985737;28;20401;-75
2022/01/08 00:37:10;;;;;;;36.00;24.15;;;77.10;2227.20;;;;;;5008143;28;20030;-76
2022/01/08 00:39:36;;;;;;;38.83;24.70;;;77.10;2227.20;;;;;;4989335;28;20112;-76
2022/01/08 00:42:03;;;;;;;38.95;25.23;;;77.10;2227.20;;;;;;5004356;28;20034;-76
2022/01/08 00:44:28;;;;;;;42.20;27.15;;;77.10;2227.20;;;;;;4994078;28;20520;-75
2022/01/08 00:46:55;;;;;;;47.72;28.08;;;77.10;2227.20;;;;;;4994692;28;20034;-75
2022/01/08 00:49:22;;;;;;;46.17;26.80;;;77.10;2227.20;;;;;;5000292;28;20073;-76
2022/01/08 00:51:47;;;;;;;37.83;26.05;;;77.00;2227.20;;;;;;4983483;28;20161;-76
2022/01/08 00:54:13;;;;;;;41.30;25.92;;;77.10;2227.20;;;;;;4982126;28;20505;-76
2022/01/08 00:56:39;;;;;;;53.00;32.05;;;77.00;2227.20;;;;;;4979236;28;20058;-76
2022/01/08 00:59:05;;;;;;;49.90;32.95;;;77.00;2227.20;;;;;;4990420;28;20023;-76
2022/01/08 01:01:31;;;;;;;48.72;29.55;;;77.00;2227.20;;;;;;4997447;28;20018;-77
2022/01/08 01:03:56;;;;;;;53.35;28.98;;;77.00;2227.20;;;;;;5006524;28;20329;-76
2022/01/08 01:06:23;;;;;;;47.30;27.45;;;77.00;2227.20;;;;;;5018927;28;20106;-75
2022/01/08 01:08:49;;;;;;;38.97;25.40;;;77.00;2227.20;;;;;;4993252;28;20026;-75
2022/01/08 01:11:15;;;;;;;42.45;26.73;;;77.20;2227.20;;;;;;5011859;28;20481;-76
2022/01/08 01:13:40;;;;;;;35.53;21.90;;;77.00;2227.20;;;;;;4995618;28;20033;-75
2022/01/08 01:16:06;;;;;;;37.05;21.25;;;77.10;2227.20;;;;;;4974792;28;20022;-76
2022/01/08 01:18:32;;;;;;;38.15;21.00;;;77.10;2227.20;;;;;;4992043;28;20385;-75
2022/01/08 01:20:59;;;;;;;35.03;21.83;;;77.10;2227.20;;;;;;4992315;28;20026;-76
2022/01/08 01:23:33;;;;;;;38.97;24.02;;;77.10;2227.20;;;;;;4991546;28;20021;-76
2022/01/08 01:26:03;;;;;;;34.97;23.23;;;77.00;2227.20;;;;;;4991968;28;20026;-77
2022/01/08 01:47:16;;;;;;;37.85;22.08;;;76.80;2227.20;;;;;;5007137;28;20496;-77
2022/01/08 01:49:45;;;;;;;36.75;23.15;;;76.80;2227.20;;;;;;4983794;28;20044;-76
2022/01/08 01:52:14;;;;;;;36.42;24.58;;;76.90;2227.20;;;;;;4994414;28;20022;-76
2022/01/08 01:54:40;;;;;;;36.25;20.25;;;76.90;2227.20;;;;;;4994295;28;20058;-76
2022/01/08 01:57:07;;;;;;;35.15;22.52;;;76.90;2227.20;;;;;;4996090;28;20049;-76
2022/01/08 01:59:35;;;;;;;44.47;24.38;;;76.90;2227.20;;;;;;4986587;28;20026;-76
2022/01/08 02:02:01;;;;;;;28.33;20.08;;;76.90;2227.20;;;;;;4996293;28;20458;-76
2022/01/08 02:04:27;;;;;;;33.85;20.55;;;77.00;2227.20;;;;;;4994052;28;20508;-76
2022/01/08 02:06:53;;;;;;;29.50;21.45;;;77.00;2227.20;;;;;;4995402;28;20405;-76
2022/01/08 02:09:19;;;;;;;31.35;21.40;;;77.00;2227.20;;;;;;4995379;28;20477;-75
2022/01/08 02:11:59;;;;;;;33.15;21.58;;;77.00;2227.20;;;;;;4995109;28;20041;-75
2022/01/08 02:14:27;;;;;;;33.55;21.98;;;77.00;2227.20;;;;;;4978213;28;20034;-76
2022/01/08 02:16:53;;;;;;;31.83;21.98;;;77.00;2227.20;;;;;;4992728;28;20033;-76
2022/01/08 02:19:19;;;;;;;33.22;21.02;;;77.00;2227.20;;;;;;4978797;28;20557;-76
2022/01/08 02:21:48;;;;;;;34.72;21.55;;;77.00;2227.20;;;;;;4994810;28;20105;-77
2022/01/08 02:24:14;;;;;;;34.67;21.83;;;77.00;2227.20;;;;;;4978295;28;20026;-75
2022/01/08 02:26:40;;;;;;;35.20;20.55;;;77.10;2227.20;;;;;;4977638;28;20057;-75
2022/01/08 02:29:09;;;;;;;32.10;22.30;;;77.10;2227.20;;;;;;4995260;28;20469;-75
2022/01/08 02:31:35;;;;;;;35.38;22.33;;;77.10;2227.20;;;;;;4996598;28;20022;-75
2022/01/08 02:34:01;;;;;;;37.28;22.33;;;77.00;2227.20;;;;;;4995204;28;20045;-76
2022/01/08 02:36:27;;;;;;;34.40;21.73;;;77.00;2227.20;;;;;;4979226;28;20026;-76
2022/01/08 02:38:53;;;;;;;34.85;22.33;;;77.10;2227.20;;;;;;4978707;28;20393;-76
2022/01/08 02:41:19;;;;;;;34.85;24.05;;;77.10;2227.20;;;;;;4978411;28;20504;-76
2022/01/08 02:43:52;;;;;;;43.78;25.98;;;77.10;2227.20;;;;;;4977734;28;20034;-76
2022/01/08 02:46:17;;;;;;;34.90;21.60;;;77.10;2227.20;;;;;;4979773;28;20034;-76
2022/01/08 02:48:43;;;;;;;38.95;23.95;;;77.10;2227.20;;;;;;4996253;28;20077;-77
2022/01/08 02:51:09;;;;;;;31.27;21.15;;;77.10;2227.20;;;;;;4996207;28;20042;-76
2022/01/08 02:53:35;;;;;;;37.00;23.55;;;77.10;2227.20;;;;;;4995944;28;20026;-77
2022/01/08 02:56:00;;;;;;;36.30;22.58;;;77.10;2227.20;;;;;;4997643;28;20038;-76
2022/01/08 02:58:28;;;;;;;32.53;21.88;;;77.30;2227.20;;;;;;5016719;28;20044;-77
2022/01/08 03:00:56;;;;;;;31.88;21.80;;;77.20;2227.20;;;;;;4997849;28;20511;-77
2022/01/08 03:03:22;;;;;;;32.95;23.10;;;77.20;2227.20;;;;;;4993242;28;20034;-76
2022/01/08 03:05:48;;;;;;;30.50;21.38;;;77.30;2227.20;;;;;;4996528;28;20030;-77
2022/01/08 03:08:14;;;;;;;33.67;20.80;;;77.20;2227.20;;;;;;5006404;28;20030;-76
2022/01/08 03:10:39;;;;;;;34.58;21.33;;;77.20;2227.20;;;;;;5014612;28;20168;-77
2022/01/08 03:13:05;;;;;;;38.58;22.40;;;77.20;2227.20;;;;;;4997527;28;20124;-77
2022/01/08 03:15:35;;;;;;;36.90;20.92;;;77.20;2227.20;;;;;;4998419;28;20022;-77
2022/01/08 03:18:02;;;;;;;32.88;21.98;;;77.20;2227.20;;;;;;5014013;28;20033;-77
2022/01/08 03:20:28;;;;;;;32.92;21.70;;;77.30;2227.20;;;;;;4997813;28;20040;-77
2022/01/08 03:23:02;;;;;;;32.08;19.38;;;77.20;2227.20;;;;;;4999712;28;20026;-76
2022/01/08 03:25:30;;;;;;;36.30;20.67;;;77.20;2227.20;;;;;;5009558;28;20121;-76
2022/01/08 03:27:56;;;;;;;32.22;20.55;;;77.20;2227.20;;;;;;5001336;28;20061;-75
2022/01/08 03:30:23;;;;;;;30.85;21.00;;;77.30;2227.20;;;;;;5004253;28;20084;-75
2022/01/08 03:32:48;;;;;;;33.60;20.45;;;77.30;2227.20;;;;;;4986467;28;20100;-75
2022/01/08 03:35:14;;;;;;;35.05;20.90;;;77.30;2227.20;;;;;;5000715;28;20026;-75
2022/01/08 03:37:40;;;;;;;31.42;20.50;;;77.40;2227.20;;;;;;4991917;28;20026;-75
2022/01/08 03:40:07;;;;;;;33.60;21.55;;;77.40;2227.20;;;;;;4992685;28;20544;-75
2022/01/08 03:42:33;;;;;;;35.83;20.63;;;77.50;2227.20;;;;;;4978635;28;20085;-75
2022/01/08 03:44:59;;;;;;;29.35;20.45;;;77.40;2227.20;;;;;;4995250;28;20084;-75
2022/01/08 03:49:54;;;;;;;31.35;18.83;;;77.50;2227.20;;;;;;4995968;28;20117;-75
2022/01/08 03:52:20;;;;;;;29.17;20.13;;;77.50;2227.20;;;;;;4995517;28;20033;-76
2022/01/08 03:54:46;;;;;;;30.88;21.35;;;77.40;2227.20;;;;;;4994643;28;20038;-76
2022/01/08 03:57:12;;;;;;;33.72;20.45;;;77.50;2227.20;;;;;;4977679;28;20121;-75
2022/01/08 03:59:38;;;;;;;31.65;19.52;;;77.50;2227.20;;;;;;4996188;28;20054;-76
2022/01/08 04:02:04;;;;;;;32.33;19.55;;;77.40;2227.20;;;;;;4978226;28;21031;-76
2022/01/08 04:04:30;;;;;;;30.00;19.27;;;77.40;2227.20;;;;;;4995311;28;20030;-75
2022/01/08 04:06:55;;;;;;;28.70;19.25;;;77.40;2227.20;;;;;;4978250;28;20370;-75
2022/01/08 04:09:21;;;;;;;31.90;17.98;;;77.50;2227.20;;;;;;4996404;28;20022;-75
2022/01/08 04:11:47;;;;;;;36.35;18.27;;;77.50;2227.20;;;;;;4994755;28;20037;-76
2022/01/08 04:14:15;;;;;;;31.67;20.23;;;77.40;2227.20;;;;;;4996254;28;20034;-76
2022/01/08 04:16:45;;;;;;;30.00;19.55;;;77.40;2227.20;;;;;;4978450;28;20026;-77
2022/01/08 04:19:11;;;;;;;29.20;19.33;;;77.40;2227.20;;;;;;5005959;28;20040;-76
2022/01/08 04:24:06;;;;;;;29.30;20.23;;;77.30;2227.20;;;;;;5014634;28;20026;-76
2022/01/08 04:26:31;;;;;;;32.30;18.98;;;77.40;2227.20;;;;;;4997790;28;20030;-76
2022/01/08 04:28:57;;;;;;;30.45;19.33;;;77.40;2227.20;;;;;;5014784;28;20032;-76
2022/01/08 04:31:24;;;;;;;31.83;20.48;;;77.30;2227.20;;;;;;4987437;28;20555;-76
2022/01/08 04:33:51;;;;;;;30.38;19.48;;;77.30;2227.20;;;;;;4992572;28;20141;-76
2022/01/08 04:36:17;;;;;;;32.90;21.25;;;77.30;2227.20;;;;;;4995921;28;20509;-76
2022/01/08 04:38:43;;;;;;;30.75;20.95;;;77.30;2227.20;;;;;;4994204;28;20434;-76
2022/01/08 04:41:09;;;;;;;32.42;19.63;;;77.30;2227.20;;;;;;4995877;28;20029;-76
2022/01/08 04:43:37;;;;;;;29.77;20.17;;;77.30;2227.20;;;;;;4994415;28;20038;-77
2022/01/08 04:46:06;;;;;;;34.92;23.05;;;77.30;2227.20;;;;;;4978411;28;20082;-77
2022/01/08 04:48:32;;;;;;;35.17;20.88;;;77.30;2227.20;;;;;;4991934;28;20031;-76
2022/01/08 04:50:57;;;;;;;34.08;20.20;;;77.40;2227.20;;;;;;4994461;28;20030;-76
2022/01/08 04:53:23;;;;;;;33.67;20.00;;;77.40;2227.20;;;;;;4994718;28;20037;-77
2022/01/08 04:55:49;;;;;;;35.78;20.92;;;77.30;2227.20;;;;;;4994885;28;20042;-77
2022/01/08 04:58:14;;;;;;;33.70;21.27;;;77.30;2227.20;;;;;;4992311;28;20381;-76
2022/01/08 05:00:41;;;;;;;33.63;21.02;;;77.30;2227.20;;;;;;4976579;28;20454;-76
2022/01/08 05:03:07;;;;;;;36.50;21.48;;;77.40;2227.20;;;;;;4961086;28;20019;-76
2022/01/08 05:05:33;;;;;;;32.47;20.52;;;77.30;2227.20;;;;;;4994489;28;20113;-77
2022/01/08 05:07:58;;;;;;;36.92;20.42;;;77.30;2227.20;;;;;;4996843;28;20085;-76
2022/01/08 05:10:24;;;;;;;37.63;23.23;;;77.30;2227.20;;;;;;4978482;28;20527;-76
2022/01/08 05:12:50;;;;;;;38.35;23.92;;;77.30;2227.20;;;;;;4995978;28;20504;-76
2022/01/08 05:15:17;;;;;;;37.53;23.15;;;77.30;2227.20;;;;;;4979098;28;20147;-77
2022/01/08 05:17:45;;;;;;;31.70;20.17;;;77.30;2227.20;;;;;;4996881;28;20018;-76
2022/01/08 05:20:13;;;;;;;35.90;22.70;;;77.20;2227.20;;;;;;4978958;28;20068;-77
2022/01/08 05:22:59;;;;;;;33.85;21.77;;;77.30;2227.20;;;;;;4996613;28;20033;-76
2022/01/08 05:25:25;;;;;;;;;;;77.30;2227.20;;;;;;4997491;28;20031;-76
2022/01/08 05:27:51;;;;;;;30.43;21.50;;;77.20;2227.20;;;;;;5011599;28;19906;-77
2022/01/08 05:30:20;;;;;;;33.08;21.42;;;77.20;2227.20;;;;;;4996360;28;20267;-76
2022/01/08 05:32:46;;;;;;;40.55;22.17;;;77.20;2227.20;;;;;;4979298;28;20054;-77
2022/01/08 05:35:13;;;;;;;34.17;21.92;;;77.30;2227.20;;;;;;4978838;28;20029;-76
2022/01/08 05:37:39;;;;;;;35.90;21.88;;;77.20;2227.20;;;;;;4997419;28;20041;-76
2022/01/08 05:40:06;;;;;;;33.15;21.25;;;77.20;2227.20;;;;;;4995718;28;20014;-76
2022/01/08 05:42:31;;;;;;;37.92;25.20;;;77.20;2227.20;;;;;;4996555;28;20493;-77
2022/01/08 05:44:57;;;;;;;36.65;22.65;;;77.20;2227.20;;;;;;4994703;28;20098;-77
2022/01/08 05:47:27;;;;;;;34.70;20.75;;;77.30;2227.20;;;;;;4963393;28;20030;-75
2022/01/08 05:49:52;;;;;;;41.80;24.38;;;77.30;2227.20;;;;;;4960214;28;20027;-76
2022/01/08 05:52:18;;;;;;;35.83;23.90;;;77.30;2227.20;;;;;;4975708;28;20035;-75
2022/01/08 05:54:45;;;;;;;38.38;23.63;;;77.30;2227.20;;;;;;4977936;28;20450;-75
2022/01/08 05:57:11;;;;;;;37.83;23.20;;;77.30;2227.20;;;;;;4977719;28;20030;-75
2022/01/08 05:59:37;;;;;;;37.53;22.85;;;77.30;2227.20;;;;;;4977968;28;20481;-75
2022/01/08 06:02:08;;;;;;;39.92;24.95;;;77.40;2227.20;;;;;;4977826;28;20023;-75
2022/01/08 06:04:34;;;;;;;38.38;23.75;;;77.40;2227.20;;;;;;4973812;28;20050;-76
2022/01/08 06:06:59;;;;;;;35.45;22.52;;;77.40;2227.20;;;;;;4995249;28;20049;-77
2022/01/08 06:09:25;;;;;;;35.40;22.50;;;77.30;2227.20;;;;;;4995583;28;20384;-76
2022/01/08 06:11:51;;;;;;;47.38;30.58;;;77.30;2227.20;;;;;;4995872;28;20030;-77
2022/01/08 06:14:17;;;;;;;63.75;36.88;;;77.40;2227.20;;;;;;4995544;28;20477;-78
2022/01/08 06:16:42;;;;;;;57.42;36.72;;;77.40;2227.20;;;;;;4997200;28;20033;-77
2022/01/08 06:19:10;;;;;;;60.25;36.00;;;77.40;2227.20;;;;;;4982870;28;20058;-78
2022/01/08 06:21:36;;;;;;;52.47;32.88;;;77.30;2227.20;;;;;;4999360;28;20038;-77
2022/01/08 06:24:04;;;;;;;56.42;34.90;;;77.30;2227.20;;;;;;5000699;28;20027;-77
2022/01/08 06:26:29;;;;;;;53.30;32.03;;;77.30;2227.20;;;;;;5001064;28;20030;-78
2022/01/08 06:28:56;;;;;;;55.70;33.95;;;77.30;2227.20;;;;;;4999823;28;20030;-77
2022/01/08 06:31:23;;;;;;;51.78;30.02;;;77.30;2227.20;;;;;;4983982;28;20382;-77
2022/01/08 06:33:49;;;;;;;47.58;29.15;;;77.10;2227.20;;;;;;5000680;28;20050;-77
2022/01/08 06:36:19;;;;;;;44.47;29.15;;;77.30;2227.20;;;;;;5000295;28;20023;-77
2022/01/08 06:38:46;;;;;;;48.30;31.02;;;77.30;2227.20;;;;;;5001179;28;20426;-77
2022/01/08 06:41:12;;;;;;;56.22;33.72;;;77.30;2227.20;;;;;;4982521;28;20057;-76
2022/01/08 06:43:38;;;;;;;48.30;31.42;;;77.30;2227.20;;;;;;4983756;28;20374;-77
2022/01/08 06:46:04;;;;;;;55.03;35.95;;;77.30;2227.20;;;;;;4999519;28;20024;-77
2022/01/08 06:48:30;;;;;;;66.60;39.42;;;77.30;2227.20;;;;;;5002379;28;20033;-78
2022/01/08 06:50:56;;;;;;;64.68;37.00;;;77.20;2227.20;;;;;;5003531;28;20023;-77
2022/01/08 06:53:21;;;;;;;45.17;27.77;;;77.20;2227.20;;;;;;5000525;28;20023;-78
2022/01/08 06:55:47;;;;;;;48.65;27.52;;;77.20;2227.20;;;;;;4997792;28;20050;-77
2022/01/08 06:58:13;;;;;;;50.80;31.65;;;77.20;2227.20;;;;;;5002572;28;20026;-77
2022/01/08 07:00:39;;;;;;;73.03;46.00;;;77.20;2227.20;;;;;;4997191;28;20386;-78
2022/01/08 07:03:09;;;;;;;45.28;27.13;;;77.20;2227.20;;;;;;4982791;28;20038;-78
2022/01/08 07:05:36;;;;;;;45.97;26.55;;;77.20;2227.20;;;;;;4985810;28;20030;-78
2022/01/08 07:08:01;;;;;;;48.40;29.50;;;77.20;2227.20;;;;;;4998763;28;20157;-79
2022/01/08 07:10:27;;;;;;;46.75;29.77;;;77.20;2227.20;;;;;;4995294;28;20082;-78
2022/01/08 07:12:53;;;;;;;50.30;29.45;;;77.20;2227.20;;;;;;4993521;28;20030;-76
2022/01/08 07:15:18;;;;;;;45.10;28.42;;;77.20;2227.20;;;;;;4973901;28;20038;-77
2022/01/08 07:17:44;;;;;;;44.38;28.05;;;77.30;2227.20;;;;;;4996357;28;20034;-77
2022/01/08 07:20:10;;;;;;;46.13;27.23;;;77.30;2227.20;;;;;;4971889;28;20053;-78
2022/01/08 07:22:36;;;;;;;46.40;29.33;;;77.30;2227.20;;;;;;4987373;28;20034;-78
2022/01/08 07:25:03;;;;;;;40.20;24.63;;;77.20;2227.20;;;;;;4987621;28;20507;-77
2022/01/08 07:27:32;;;;;;;42.08;24.40;;;77.30;2227.20;;;;;;4986027;28;20804;-76
2022/01/08 07:29:58;;;;;;;39.20;23.52;;;77.30;2227.20;;;;;;4969956;28;20037;-76
2022/01/08 07:32:24;;;;;;;40.88;25.65;;;77.30;2227.20;;;;;;5005050;28;20468;-77
2022/01/08 07:34:50;;;;;;;50.47;29.60;;;77.30;2227.20;;;;;;5004189;28;20031;-76
2022/01/08 07:37:16;;;;;;;58.05;33.38;;;77.30;2227.20;;;;;;4983389;28;20524;-77
2022/01/08 07:39:41;;;;;;;61.17;33.25;;;77.30;2227.20;;;;;;4986477;28;20019;-76
2022/01/08 07:42:07;;;;;;;57.28;29.33;;;77.30;2227.20;;;;;;5004424;28;20037;-77
2022/01/08 07:44:33;;;;;;;59.15;33.58;;;77.30;2227.20;;;;;;4980831;28;20392;-77
2022/01/08 07:47:00;;;;;;;77.80;51.10;;;77.20;2227.20;;;;;;4985173;28;20493;-76
2022/01/08 07:49:26;;;;;;;78.10;46.47;;;77.20;2227.20;;;;;;4983612;28;20022;-77
2022/01/08 07:51:52;;;;;;;63.65;39.20;;;77.20;2227.20;;;;;;4984358;28;20481;-76
2022/01/08 07:54:18;;;;;;;100.05;50.25;;;77.20;2227.20;;;;;;5003299;28;20049;-76
2022/01/08 07:56:43;;;;;;;71.90;39.92;;;77.30;2227.20;;;;;;5004075;28;20038;-76
2022/01/08 07:59:09;;;;;;;51.05;32.45;;;77.30;2227.20;;;;;;4986585;28;20117;-76
2022/01/08 08:01:35;;;;;;;49.97;30.92;;;77.30;2227.20;;;;;;4983386;28;20022;-77
2022/01/08 08:04:00;;;;;;;49.65;32.20;;;77.30;2227.20;;;;;;4998148;28;20065;-77
2022/01/08 08:06:26;;;;;;;50.22;30.48;;;77.30;2227.20;;;;;;5002707;28;20041;-75
2022/01/08 08:08:52;;;;;;;54.20;31.20;;;77.30;2227.20;;;;;;4984448;28;20445;-76
2022/01/08 08:11:19;;;;;;;50.45;29.35;;;77.30;2227.20;;;;;;4997093;28;20025;-76
2022/01/08 08:13:45;;;;;;;49.00;29.40;;;77.30;2227.20;;;;;;5004345;28;20038;-77
2022/01/08 08:16:10;;;;;;;46.58;29.50;;;77.30;2227.20;;;;;;4981947;28;20045;-77
2022/01/08 08:18:36;;;;;;;45.35;29.67;;;77.30;2227.20;;;;;;5005642;28;20519;-77
2022/01/08 08:21:02;;;;;;;46.42;28.50;;;77.30;2227.20;;;;;;5002855;28;20034;-76
2022/01/08 08:23:28;;;;;;;50.97;29.63;;;77.30;2227.20;;;;;;4984823;28;20030;-76
2022/01/08 08:25:54;;;;;;;59.22;34.42;;;77.30;2227.20;;;;;;5003865;28;20535;-76
2022/01/08 08:28:19;;;;;;;60.38;32.83;;;77.30;2227.20;;;;;;4984757;28;20038;-76
2022/01/08 08:30:45;;;;;;;51.95;32.75;;;77.30;2227.20;;;;;;4990962;28;20031;-77
2022/01/08 08:33:11;;;;;;;63.40;35.85;;;77.30;2227.20;;;;;;5000536;28;20486;-76
2022/01/08 08:35:37;;;;;;;60.17;32.65;;;77.30;2227.20;;;;;;4984248;28;20037;-78
2022/01/08 08:38:02;;;;;;;61.78;33.50;;;77.30;2227.20;;;;;;5004087;28;20053;-77
2022/01/08 08:40:28;;;;;;;63.42;37.45;;;77.30;2227.20;;;;;;5002367;28;20028;-77
2022/01/08 08:42:54;;;;;;;62.25;34.90;;;77.30;2227.20;;;;;;4986656;28;20030;-77
2022/01/08 08:45:20;;;;;;;49.10;31.92;;;77.30;2227.20;;;;;;5004257;28;20030;-76
2022/01/08 08:47:46;;;;;;;44.20;29.92;;;77.50;2227.20;;;;;;5004403;28;20033;-77
2022/01/08 08:50:14;;;;;;;43.50;28.30;;;77.50;2227.20;;;;;;4988047;28;20109;-76
2022/01/08 08:52:40;;;;;;;46.15;24.85;;;77.50;2227.20;;;;;;4977404;28;20038;-77
2022/01/08 08:55:07;;;;;;;46.65;26.13;;;77.60;2227.20;;;;;;4975810;28;20409;-77
2022/01/08 08:57:33;;;;;;;50.95;25.75;;;77.50;2227.20;;;;;;4975771;28;20041;-78
2022/01/08 08:59:59;;;;;;;47.97;26.42;;;77.50;2227.20;;;;;;4983590;28;20031;-76
2022/01/08 09:02:25;;;;;;;43.08;28.13;;;77.50;2227.20;;;;;;4991484;28;20027;-76
2022/01/08 09:04:51;;;;;;;43.50;28.48;;;77.50;2227.20;;;;;;5001105;28;20468;-76
2022/01/08 09:07:17;;;;;;;50.30;31.80;;;77.40;2227.20;;;;;;4981652;28;20136;-78
2022/01/08 09:09:44;;;;;;;68.53;42.88;;;77.50;2227.20;;;;;;5004654;28;20477;-77
2022/01/08 09:12:14;;;;;;;58.97;37.10;;;77.70;2227.20;;;;;;5002600;28;20037;-76
2022/01/08 09:14:43;;;;;;;61.00;37.25;;;102.40;2227.20;;;;;;4985499;28;20037;-75
2022/01/08 09:17:09;;;;;;;76.70;42.47;;;77.70;2227.20;;;;;;5003015;28;20042;-76
2022/01/08 09:19:34;;;;;;;76.00;46.15;;;77.70;2227.20;;;;;;4985195;28;20389;-75
2022/01/08 09:22:01;;;;;;;65.32;41.22;;;77.60;2227.20;;;;;;5006649;28;20034;-76
2022/01/08 09:24:28;;;;;;;64.97;39.85;;;77.60;2227.20;;;;;;4990441;28;20094;-76
2022/01/08 09:26:53;;;;;;;55.10;35.63;;;77.70;2227.20;;;;;;4986725;28;20491;-76
2022/01/08 09:29:19;;;;;;;52.28;31.45;;;77.60;2227.20;;;;;;5005583;28;20037;-76
2022/01/08 09:31:45;;;;;;;51.60;31.23;;;77.60;2227.20;;;;;;4999158;28;20113;-76
2022/01/08 09:34:12;;;;;;;46.13;29.63;;;77.60;2227.20;;;;;;4991305;28;20038;-76
2022/01/08 09:36:38;;;;;;;47.30;28.75;;;77.70;2227.20;;;;;;5007549;28;20413;-76
2022/01/08 09:39:06;;;;;;;66.32;40.92;;;102.40;2227.20;;;;;;5002911;28;20026;-76
2022/01/08 09:41:32;;;;;;;47.30;29.52;;;77.70;2227.20;;;;;;4984655;28;20041;-77
2022/01/08 09:43:58;;;;;;;43.88;28.75;;;102.40;2227.20;;;;;;4987611;28;20034;-77
2022/01/08 09:46:24;;;;;;;50.60;33.17;;;102.40;2227.20;;;;;;5005164;28;20018;-77
2022/01/08 09:48:49;;;;;;;36.58;25.55;;;102.70;2227.20;;;;;;4985545;28;20040;-77
2022/01/08 09:51:16;;;;;;;43.90;25.70;;;102.40;2227.20;;;;;;4996063;28;20029;-76
2022/01/08 09:53:46;;;;;;;45.33;28.58;;;77.60;2227.20;;;;;;5005555;28;20057;-76
2022/01/08 09:56:12;;;;;;;49.65;32.38;;;77.70;2227.20;;;;;;5007538;28;20081;-76
2022/01/08 09:58:38;;;;;;;50.75;30.60;;;77.70;2227.20;;;;;;4987351;28;20025;-77
2022/01/08 10:01:24;;;;;;;42.65;26.50;;;77.70;2227.20;;;;;;4975849;28;20023;-77
2022/01/08 10:03:51;;;;;;;43.35;25.70;;;77.70;2227.20;;;;;;4986442;28;20477;-76
2022/01/08 10:06:22;;;;;;;49.25;27.00;;;102.40;2227.20;;;;;;5014164;28;20486;-76
2022/01/08 10:08:49;;;;;;;47.97;29.55;;;102.40;2227.20;;;;;;5016841;28;20033;-77
2022/01/08 10:11:15;;;;;;;61.90;34.97;;;102.40;2227.20;;;;;;5015224;28;20026;-76
2022/01/08 10:13:43;;;;;;;59.05;35.20;;;102.50;2227.20;;;;;;5012315;28;20045;-76
2022/01/08 10:18:58;;;;;;;57.33;31.75;;;102.70;2227.20;;;;;;5004608;28;20453;-77
2022/01/08 10:21:37;;;;;;;59.45;34.65;;;102.70;2227.20;;;;;;4985408;28;20030;-75
2022/01/08 10:24:08;;;;;;;75.32;38.25;;;102.70;2227.20;;;;;;5007731;28;20053;-77
2022/01/08 10:26:41;;;;;;;70.68;34.05;;;103.00;2227.20;;;;;;4961073;28;20038;-75
2022/01/08 10:29:14;;;;;;;62.55;34.28;;;102.90;2227.20;;;;;;4958690;28;20121;-76
2022/01/08 10:31:45;;;;;;;47.22;28.20;;;102.90;2227.20;;;;;;4982371;28;20026;-76
2022/01/08 10:34:20;;;;;;;32.25;21.73;;;102.80;2227.20;;;;;;4985051;28;20503;-76
2022/01/08 10:37:06;;;;;;;29.38;19.65;;;102.90;2227.20;;;;;;5012551;28;20485;-75
2022/01/08 10:39:40;;;;;;;32.88;18.98;;;102.90;2227.20;;;;;;5014682;28;20029;-76
2022/01/08 10:42:16;;;;;;;34.13;21.88;;;102.90;2227.20;;;;;;4997431;28;20362;-77
2022/01/08 10:44:46;;;;;;;35.78;23.98;;;103.00;2227.20;;;;;;5010924;28;20027;-76
2022/01/08 10:47:19;;;;;;;36.42;23.52;;;103.00;2227.20;;;;;;4995318;28;20026;-76
2022/01/08 10:49:47;;;;;;;31.52;21.13;;;103.00;2227.20;;;;;;4966863;28;20038;-76
2022/01/08 10:52:14;;;;;;;32.10;20.85;;;103.00;2227.20;;;;;;4988928;28;20041;-76
2022/01/08 10:54:42;;;;;;;27.83;18.20;;;103.00;2227.20;;;;;;4983684;28;20030;-76
2022/01/08 10:57:09;;;;;;;31.17;19.15;;;103.00;2227.20;;;;;;4995275;28;20085;-76
2022/01/08 10:59:37;;;;;;;32.00;20.65;;;102.90;2227.20;;;;;;4977406;28;20033;-75
2022/01/08 11:02:06;;;;;;;34.03;21.92;;;102.90;2227.20;;;;;;4989348;28;20096;-76
2022/01/08 11:04:48;;;;;;;37.40;23.20;;;102.90;2227.20;;;;;;4996840;28;20030;-76
2022/01/08 11:07:24;;;;;;;37.97;22.50;;;102.80;2227.20;;;;;;5006020;28;20085;-76
2022/01/08 11:09:52;;;;;;;50.90;26.65;;;102.70;2227.20;;;;;;5005783;28;20033;-76
2022/01/08 11:12:30;;;;;;;42.70;22.52;;;102.60;2227.20;;;;;;4981171;28;20035;-76
2022/01/08 11:15:24;;;;;;;67.90;35.15;;;102.60;2227.20;;;;;;4997170;28;20042;-76
2022/01/08 11:17:53;;;;;;;68.22;35.40;;;102.60;2227.20;;;;;;4994387;28;20041;-74
2022/01/08 11:20:27;;;;;;;70.30;35.28;;;102.60;2227.20;;;;;;4982179;28;20034;-74
2022/01/08 11:23:02;;;;;;;55.40;30.02;;;102.50;2227.20;;;;;;4995197;28;20030;-75
2022/01/08 11:25:32;;;;;;;67.05;30.08;;;102.50;2227.20;;;;;;4992012;28;20049;-75
2022/01/08 11:28:10;;;;;;;65.80;30.33;;;102.50;2227.20;;;;;;4980254;28;20061;-74
2022/01/08 11:30:38;;;;;;;48.47;25.33;;;102.40;2227.20;;;;;;5001390;28;20028;-74
2022/01/08 11:33:13;;;;;;;38.85;21.13;;;102.50;2227.20;;;;;;4999684;28;20046;-74
2022/01/08 11:35:40;;;;;;;44.72;25.05;;;102.50;2227.20;;;;;;4998989;28;20109;-75
2022/01/08 11:38:10;;;;;;;36.90;21.15;;;102.50;2227.20;;;;;;4979875;28;20058;-75
2022/01/08 11:40:43;;;;;;;38.33;24.23;;;102.50;2227.20;;;;;;4997570;28;20083;-76
2022/01/08 11:43:11;;;;;;;40.50;26.30;;;102.40;2227.20;;;;;;5005382;28;20026;-76
2022/01/08 11:45:43;;;;;;;40.97;25.48;;;102.40;2227.20;;;;;;5000800;28;20029;-76
2022/01/08 11:48:11;;;;;;;47.38;24.13;;;102.40;2227.20;;;;;;5000054;28;20022;-76
2022/01/08 11:50:37;;;;;;;47.38;28.33;;;102.50;2227.20;;;;;;4999241;28;20384;-76
2022/01/08 11:53:23;;;;;;;62.70;32.47;;;102.60;2227.20;;;;;;4999760;28;20022;-76
2022/01/08 11:55:54;;;;;;;53.40;27.75;;;102.60;2227.20;;;;;;5004368;28;20034;-75
2022/01/08 11:58:23;;;;;;;57.10;30.13;;;102.50;2227.20;;;;;;4997815;28;20373;-75
2022/01/08 12:00:55;;;;;;;72.45;38.08;;;102.50;2227.20;;;;;;4999918;28;20025;-76
2022/01/08 12:03:36;;;;;;;100.60;46.78;;;102.50;2227.20;;;;;;4996851;28;20019;-76
2022/01/08 12:06:27;;;;;;;79.85;39.83;;;102.40;2227.20;;;;;;4983906;28;20448;-75
2022/01/08 12:09:28;;;;;;;66.38;34.83;;;102.50;2227.20;;;;;;5001272;28;20084;-76
2022/01/08 12:12:00;;;;;;;49.00;26.73;;;102.50;2227.20;;;;;;4991689;28;20041;-77
2022/01/08 12:14:28;;;;;;;61.63;30.55;;;102.50;2227.20;;;;;;4983526;28;20161;-76
2022/01/08 12:16:58;;;;;;;59.15;34.17;;;102.50;2227.20;;;;;;4982704;28;20046;-76
2022/01/08 12:19:35;;;;;;;45.90;25.45;;;102.50;2227.20;;;;;;4986713;28;20022;-77
2022/01/08 12:22:21;;;;;;;44.30;26.00;;;102.40;2227.20;;;;;;4996194;28;20019;-76
2022/01/08 12:24:51;;;;;;;47.22;27.35;;;102.40;2227.20;;;;;;4980087;28;20080;-76
2022/01/08 12:27:36;;;;;;;29.67;19.13;;;102.40;2227.20;;;;;;5006293;28;20382;-76
2022/01/08 12:30:17;;;;;;;41.90;25.85;;;102.40;2227.20;;;;;;4993609;28;20397;-76
2022/01/08 12:32:50;;;;;;;43.15;28.02;;;77.70;2227.20;;;;;;4983797;28;20505;-76
2022/01/08 12:35:21;;;;;;;37.97;24.02;;;77.70;2227.20;;;;;;4996542;28;20042;-76